createdAt,value
2023-05-01T00:01:06.160Z,96273.47
2023-05-01T00:03:33.858Z,96275.25
2023-05-01T00:06:02.152Z,96268.97
2023-05-01T00:08:29.786Z,96264.97
2023-05-01T00:10:57.252Z,96258.75
2023-05-01T00:13:26.527Z,96256.75
2023-05-01T00:15:55.704Z,96248.53
2023-05-01T00:18:23.191Z,96245.09
2023-05-01T00:20:50.994Z,96240.72
2023-05-01T00:23:18.507Z,96248.97
2023-05-01T00:25:46.031Z,96237.41
2023-05-01T00:28:13.502Z,96233.91
2023-05-01T00:30:42.410Z,96235.56
2023-05-01T00:33:10.175Z,96230.78
2023-05-01T00:35:38.031Z,96230.16
2023-05-01T00:38:05.678Z,96232.53
2023-05-01T00:40:33.132Z,96234.75
2023-05-01T00:43:00.576Z,96229.34
2023-05-01T00:45:28.172Z,96226.38
2023-05-01T00:47:57.095Z,96221.44
2023-05-01T00:50:24.611Z,96217.97
2023-05-01T00:52:53.136Z,96226.41
2023-05-01T00:55:21.476Z,96222.25
2023-05-01T00:57:49.085Z,96211.56
2023-05-01T01:00:17.483Z,96213.38
2023-05-01T01:02:45.024Z,96214.97
2023-05-01T01:05:13.956Z,96206.44
2023-05-01T01:07:51.133Z,96191.16
2023-05-01T01:10:28.628Z,96200.09
2023-05-01T01:13:05.330Z,96189.81
2023-05-01T01:15:37.029Z,96193.75
2023-05-01T01:18:11.023Z,96190.56
2023-05-01T01:20:45.623Z,96187.31
2023-05-01T01:23:28.853Z,96183.47
2023-05-01T01:26:39.146Z,96177.38
2023-05-01T01:29:38.204Z,96173.28
2023-05-01T01:32:20.604Z,96185.75
2023-05-01T01:34:53.052Z,96175.72
2023-05-01T01:37:23.908Z,96173.06
2023-05-01T01:39:58.991Z,96166.34
2023-05-01T01:42:31.513Z,96169.13
2023-05-01T01:45:04.923Z,96168.34
2023-05-01T01:47:34.812Z,96166.78
2023-05-01T01:50:08.200Z,96157.03
2023-05-01T01:52:38.099Z,96165.13
2023-05-01T01:55:09.359Z,96153.06
2023-05-01T01:57:39.575Z,96159.69
2023-05-01T02:00:11.460Z,96147.91
2023-05-01T02:02:40.994Z,96147.84
2023-05-01T02:05:14.476Z,96151.72
2023-05-01T02:07:44.262Z,96149.34
2023-05-01T02:10:14.904Z,96146.09
2023-05-01T02:12:45.512Z,96144.75
2023-05-01T02:15:14.824Z,96146.28
2023-05-01T02:17:42.816Z,96137.28
2023-05-01T02:20:13.341Z,96147.41
2023-05-01T02:22:41.940Z,96139.09
2023-05-01T02:25:12.426Z,96134.88
2023-05-01T02:27:44.681Z,96127.53
2023-05-01T02:30:13.426Z,96123.78
2023-05-01T02:32:41.317Z,96132.44
2023-05-01T02:35:09.196Z,96127.53
2023-05-01T02:37:38.661Z,96134.75
2023-05-01T02:40:08.159Z,96126.31
2023-05-01T02:42:36.265Z,96130.97
2023-05-01T02:45:06.405Z,96119.56
2023-05-01T02:47:37.869Z,96120.41
2023-05-01T02:50:09.062Z,96116.00
2023-05-01T02:52:38.816Z,96115.25
2023-05-01T02:55:07.206Z,96119.72
2023-05-01T02:57:34.755Z,96108.75
2023-05-01T03:00:02.217Z,96103.75
2023-05-01T03:02:29.858Z,96098.78
2023-05-01T03:04:57.285Z,96105.34
2023-05-01T03:07:24.746Z,96094.88
2023-05-01T03:09:53.631Z,96102.72
2023-05-01T03:12:21.669Z,96096.16
2023-05-01T03:14:49.127Z,96098.47
2023-05-01T03:17:16.568Z,96098.63
2023-05-01T03:19:44.043Z,96091.97
2023-05-01T03:22:11.488Z,96101.03
2023-05-01T03:24:38.920Z,96093.03
2023-05-01T03:27:07.824Z,96093.94
2023-05-01T03:29:37.868Z,96094.94
2023-05-01T03:32:05.910Z,96089.84
2023-05-01T03:34:34.148Z,96096.47
2023-05-01T03:37:01.590Z,96098.88
2023-05-01T03:39:29.029Z,96100.00
2023-05-01T03:41:56.462Z,96095.84
2023-05-01T03:44:25.303Z,96082.44
2023-05-01T03:46:52.829Z,96081.59
2023-05-01T03:49:20.541Z,96088.16
2023-05-01T03:51:47.979Z,96077.19
2023-05-01T03:54:15.424Z,96080.59
2023-05-01T03:56:42.882Z,96070.94
2023-05-01T03:59:10.416Z,96082.31
2023-05-01T04:01:39.825Z,96070.94
2023-05-01T04:04:08.075Z,96071.75
2023-05-01T04:06:36.167Z,96074.09
2023-05-01T04:09:03.970Z,96071.97
2023-05-01T04:11:31.400Z,96073.00
2023-05-01T04:13:58.884Z,96068.09
2023-05-01T04:16:26.465Z,96075.13
2023-05-01T04:18:55.289Z,96069.00
2023-05-01T04:21:22.910Z,96073.69
2023-05-01T04:23:50.411Z,96064.41
2023-05-01T04:26:18.071Z,96061.59
2023-05-01T04:28:45.522Z,96059.31
2023-05-01T04:31:13.717Z,96060.81
2023-05-01T04:33:41.208Z,96053.84
2023-05-01T04:36:10.057Z,96060.97
2023-05-01T04:38:38.110Z,96054.75
2023-05-01T04:41:06.051Z,96061.03
2023-05-01T04:43:33.580Z,96064.47
2023-05-01T04:46:01.037Z,96067.63
2023-05-01T04:48:28.521Z,96060.59
2023-05-01T04:50:56.038Z,96075.13
2023-05-01T04:53:24.844Z,96072.00
2023-05-01T04:55:52.356Z,96067.84
2023-05-01T04:58:19.800Z,96076.69
2023-05-01T05:00:47.258Z,96067.28
2023-05-01T05:03:15.495Z,96066.75
2023-05-01T05:05:43.080Z,96063.53
2023-05-01T05:08:10.680Z,96073.44
2023-05-01T05:10:39.452Z,96064.34
2023-05-01T05:13:06.912Z,96067.38
2023-05-01T05:15:34.360Z,96063.78
2023-05-01T05:18:02.227Z,96062.25
2023-05-01T05:20:29.774Z,96064.56
2023-05-01T05:22:57.293Z,96060.59
2023-05-01T05:25:25.285Z,96057.38
2023-05-01T05:27:54.149Z,96061.22
2023-05-01T05:30:21.641Z,96055.66
2023-05-01T05:32:49.192Z,96065.53
2023-05-01T05:35:16.940Z,96062.66
2023-05-01T05:37:46.120Z,96055.44
2023-05-01T05:40:14.410Z,96050.06
2023-05-01T05:42:41.852Z,96057.13
2023-05-01T05:45:11.219Z,96060.00
2023-05-01T05:47:39.120Z,96057.84
2023-05-01T05:50:07.993Z,96054.53
2023-05-01T05:52:35.481Z,96057.19
2023-05-01T05:55:03.001Z,96045.78
2023-05-01T05:57:30.444Z,96045.91
2023-05-01T05:59:58.367Z,96049.69
2023-05-01T06:02:27.470Z,96046.38
2023-05-01T06:04:56.410Z,96057.16
2023-05-01T06:07:23.900Z,96048.31
2023-05-01T06:09:51.343Z,96046.25
2023-05-01T06:12:18.785Z,96050.75
2023-05-01T06:14:46.741Z,96045.00
2023-05-01T06:17:15.070Z,96048.13
2023-05-01T06:19:43.845Z,96040.84
2023-05-01T06:22:11.287Z,96039.69
2023-05-01T06:24:39.727Z,96038.94
2023-05-01T06:27:07.291Z,96029.69
2023-05-01T06:29:34.728Z,96037.13
2023-05-01T06:32:02.182Z,96034.09
2023-05-01T06:34:29.629Z,96034.44
2023-05-01T06:36:58.409Z,96029.88
2023-05-01T06:39:25.873Z,96022.81
2023-05-01T06:41:53.301Z,96024.47
2023-05-01T06:44:20.803Z,96013.22
2023-05-01T06:46:48.300Z,96023.13
2023-05-01T06:49:15.837Z,96026.13
2023-05-01T06:51:43.353Z,96014.47
2023-05-01T06:54:12.334Z,96015.31
2023-05-01T06:56:40.006Z,96012.22
2023-05-01T06:59:07.443Z,96010.91
2023-05-01T07:01:35.731Z,96010.16
2023-05-01T07:04:03.939Z,96012.03
2023-05-01T07:06:32.224Z,96021.72
2023-05-01T07:08:59.720Z,96021.38
2023-05-01T07:11:28.529Z,96021.38
2023-05-01T07:13:56.338Z,96021.69
2023-05-01T07:16:23.790Z,96022.06
2023-05-01T07:18:51.331Z,96018.34
2023-05-01T07:21:18.850Z,96020.66
2023-05-01T07:23:46.337Z,96007.13
2023-05-01T07:26:13.816Z,96015.88
2023-05-01T07:28:42.597Z,96013.94
2023-05-01T07:31:10.754Z,96005.44
2023-05-01T07:33:38.266Z,96000.91
2023-05-01T07:36:05.870Z,96006.47
2023-05-01T07:38:33.527Z,96004.63
2023-05-01T07:41:01.011Z,96001.72
2023-05-01T07:43:28.446Z,95994.84
2023-05-01T07:45:58.805Z,95996.69
2023-05-01T07:48:26.974Z,95995.31
2023-05-01T07:50:55.091Z,95993.28
2023-05-01T07:53:23.447Z,96002.88
2023-05-01T07:55:51.038Z,95998.00
2023-05-01T07:58:18.976Z,95999.56
2023-05-01T08:00:46.436Z,95998.75
2023-05-01T08:03:15.351Z,95996.41
2023-05-01T08:05:43.204Z,95989.94
2023-05-01T08:08:10.706Z,95997.91
2023-05-01T08:10:38.153Z,96001.00
2023-05-01T08:13:05.592Z,95994.47
2023-05-01T08:15:33.045Z,95995.50
2023-05-01T08:18:00.597Z,96002.66
2023-05-01T08:20:29.551Z,95990.19
2023-05-01T08:22:57.005Z,95999.13
2023-05-01T08:25:24.598Z,95988.84
2023-05-01T08:27:52.601Z,95988.31
2023-05-01T08:30:20.509Z,95984.88
2023-05-01T08:32:49.170Z,95978.75
2023-05-01T08:35:16.837Z,95979.41
2023-05-01T08:37:45.620Z,95977.53
2023-05-01T08:40:13.411Z,95981.22
2023-05-01T08:42:40.866Z,95973.78
2023-05-01T08:45:10.085Z,95978.75
2023-05-01T08:47:39.276Z,95976.84
2023-05-01T08:50:12.139Z,95984.09
2023-05-01T08:52:42.091Z,95982.31
2023-05-01T08:55:13.589Z,95982.00
2023-05-01T08:57:46.809Z,95977.97
2023-05-01T09:00:19.464Z,95972.97
2023-05-01T09:02:49.357Z,95975.13
2023-05-01T09:05:17.939Z,95975.16
2023-05-01T09:07:46.512Z,95974.06
2023-05-01T09:10:17.873Z,95979.19
2023-05-01T09:12:51.665Z,95980.44
2023-05-01T09:15:19.177Z,95975.91
2023-05-01T09:17:46.711Z,95979.19
2023-05-01T09:20:14.539Z,95977.81
2023-05-01T09:22:42.117Z,95980.88
2023-05-01T09:25:10.851Z,95982.28
2023-05-01T09:27:40.227Z,95979.94
2023-05-01T09:30:09.437Z,95978.28
2023-05-01T09:32:36.945Z,95984.13
2023-05-01T09:35:12.202Z,95980.03
2023-05-01T09:37:40.539Z,95982.81
2023-05-01T09:40:09.666Z,95984.03
2023-05-01T09:42:40.697Z,95972.06
2023-05-01T09:45:14.086Z,95982.69
2023-05-01T09:47:42.530Z,95976.84
2023-05-01T09:50:11.275Z,95976.19
2023-05-01T09:52:38.801Z,95971.69
2023-05-01T09:55:14.584Z,95973.88
2023-05-01T09:57:45.228Z,95972.22
2023-05-01T10:00:15.381Z,95975.41
2023-05-01T10:02:45.212Z,95974.28
2023-05-01T10:05:13.841Z,95969.97
2023-05-01T10:07:42.968Z,95973.72
2023-05-01T10:10:17.889Z,95974.78
2023-05-01T10:12:46.730Z,95969.09
2023-05-01T10:15:24.478Z,95971.06
2023-05-01T10:17:52.936Z,95976.44
2023-05-01T10:20:20.845Z,95972.09
2023-05-01T10:22:48.847Z,95972.97
2023-05-01T10:25:18.718Z,95974.94
2023-05-01T10:27:48.411Z,95972.09
2023-05-01T10:30:18.065Z,95977.31
2023-05-01T10:32:47.254Z,95976.38
2023-05-01T10:35:20.314Z,95972.78
2023-05-01T10:37:49.258Z,95974.69
2023-05-01T10:40:44.803Z,95969.28
2023-05-01T10:43:18.356Z,95964.41
2023-05-01T10:45:47.017Z,95960.06
2023-05-01T10:48:52.104Z,95960.41
2023-05-01T10:51:21.261Z,95961.09
2023-05-01T10:53:50.389Z,95957.69
2023-05-01T10:56:44.000Z,95960.03
2023-05-01T10:59:12.998Z,95958.16
2023-05-01T11:01:41.684Z,95956.94
2023-05-01T11:04:53.939Z,95958.34
2023-05-01T11:07:23.574Z,95951.59
2023-05-01T11:09:54.978Z,95943.41
2023-05-01T11:12:54.425Z,95944.06
2023-05-01T11:15:32.137Z,95934.00
2023-05-01T11:18:00.091Z,95947.75
2023-05-01T11:20:50.491Z,95942.78
2023-05-01T11:23:21.982Z,95936.19
2023-05-01T11:25:52.772Z,95935.59
2023-05-01T11:28:22.520Z,95931.75
2023-05-01T11:30:51.705Z,95935.78
2023-05-01T11:33:28.461Z,95929.31
2023-05-01T11:36:00.635Z,95926.63
2023-05-01T11:38:28.334Z,95929.84
2023-05-01T11:40:59.052Z,95927.03
2023-05-01T11:43:26.760Z,95916.81
2023-05-01T11:46:03.827Z,95919.81
2023-05-01T11:48:32.454Z,95914.25
2023-05-01T11:51:00.155Z,95917.94
2023-05-01T11:53:27.678Z,95922.28
2023-05-01T11:55:55.298Z,95920.06
2023-05-01T11:58:33.790Z,95921.25
2023-05-01T12:01:03.265Z,95915.66
2023-05-01T12:03:42.284Z,95913.78
2023-05-01T12:06:10.997Z,95913.09
2023-05-01T12:08:42.696Z,95911.19
2023-05-01T12:11:10.470Z,95913.53
2023-05-01T12:13:40.142Z,95906.44
2023-05-01T12:16:09.431Z,95906.84
2023-05-01T12:18:37.211Z,95906.13
2023-05-01T12:21:04.743Z,95904.19
2023-05-01T12:23:34.835Z,95908.44
2023-05-01T12:26:03.867Z,95908.19
2023-05-01T12:28:31.977Z,95906.53
2023-05-01T12:31:05.264Z,95904.09
2023-05-01T12:33:34.421Z,95900.03
2023-05-01T12:36:11.842Z,95904.72
2023-05-01T12:38:39.457Z,95907.91
2023-05-01T12:41:09.444Z,95902.44
2023-05-01T12:43:38.531Z,95904.94
2023-05-01T12:46:07.626Z,95907.81
2023-05-01T12:48:40.075Z,95904.72
2023-05-01T12:51:07.971Z,95905.34
2023-05-01T12:53:35.625Z,95898.88
2023-05-01T12:56:03.372Z,95895.31
2023-05-01T12:58:37.805Z,95907.56
2023-05-01T13:01:06.272Z,95907.59
2023-05-01T13:03:40.098Z,95897.44
2023-05-01T13:06:09.024Z,95894.25
2023-05-01T13:08:39.650Z,95901.38
2023-05-01T13:11:13.024Z,95895.16
2023-05-01T13:13:41.003Z,95894.03
2023-05-01T13:16:12.421Z,95894.97
2023-05-01T13:18:46.242Z,95898.09
2023-05-01T13:21:16.694Z,95903.47
2023-05-01T13:23:53.908Z,95901.81
2023-05-01T13:26:27.491Z,95898.53
2023-05-01T13:28:55.388Z,95899.75
2023-05-01T13:31:22.887Z,95905.91
2023-05-01T13:33:54.183Z,95900.81
2023-05-01T13:36:26.875Z,95901.22
2023-05-01T13:38:56.988Z,95908.03
2023-05-01T13:41:26.685Z,95907.56
2023-05-01T13:43:55.504Z,95916.72
2023-05-01T13:46:24.521Z,95913.78
2023-05-01T13:48:53.569Z,95911.34
2023-05-01T13:51:23.157Z,95917.00
2023-05-01T13:53:50.910Z,95917.66
2023-05-01T13:56:18.505Z,95915.09
2023-05-01T13:58:46.308Z,95921.84
2023-05-01T14:01:16.364Z,95920.66
2023-05-01T14:03:44.399Z,95913.59
2023-05-01T14:06:15.110Z,95916.41
2023-05-01T14:08:43.200Z,95922.56
2023-05-01T14:11:11.628Z,95924.25
2023-05-01T14:13:41.815Z,95921.47
2023-05-01T14:16:11.470Z,95925.63
2023-05-01T14:18:45.496Z,95925.72
2023-05-01T14:21:16.225Z,95922.69
2023-05-01T14:23:44.218Z,95922.91
2023-05-01T14:26:12.967Z,95934.09
2023-05-01T14:28:43.046Z,95927.34
2023-05-01T14:31:10.673Z,95928.63
2023-05-01T14:33:43.187Z,95929.13
2023-05-01T14:36:10.702Z,95934.00
2023-05-01T14:38:41.486Z,95940.56
2023-05-01T14:41:12.926Z,95928.38
2023-05-01T14:43:42.245Z,95931.06
2023-05-01T14:46:09.773Z,95927.38
2023-05-01T14:48:38.009Z,95923.59
2023-05-01T14:51:06.593Z,95931.78
2023-05-01T14:53:34.512Z,95925.38
2023-05-01T14:56:03.316Z,95920.97
2023-05-01T14:58:30.811Z,95925.31
2023-05-01T15:00:58.339Z,95927.91
2023-05-01T15:03:25.933Z,95922.19
2023-05-01T15:05:53.609Z,95923.84
2023-05-01T15:08:21.047Z,95927.38
2023-05-01T15:10:48.515Z,95923.63
2023-05-01T15:13:17.504Z,95935.19
2023-05-01T15:15:44.967Z,95928.50
2023-05-01T15:18:12.503Z,95936.28
2023-05-01T15:20:40.090Z,95935.88
2023-05-01T15:23:07.574Z,95934.25
2023-05-01T15:25:35.024Z,95932.06
2023-05-01T15:28:03.407Z,95936.59
2023-05-01T15:30:32.388Z,95931.91
2023-05-01T15:32:59.926Z,95934.34
2023-05-01T15:35:27.636Z,95926.97
2023-05-01T15:37:56.430Z,95933.13
2023-05-01T15:40:23.906Z,95932.13
2023-05-01T15:42:51.645Z,95938.44
2023-05-01T15:45:19.850Z,95930.66
2023-05-01T15:47:48.789Z,95929.22
2023-05-01T15:50:16.296Z,95933.75
2023-05-01T15:52:43.777Z,95937.47
2023-05-01T15:55:12.655Z,95932.19
2023-05-01T15:57:40.103Z,95938.91
2023-05-01T16:00:10.526Z,95944.81
2023-05-01T16:02:38.150Z,95943.41
2023-05-01T16:05:08.458Z,95942.88
2023-05-01T16:07:35.958Z,95938.06
2023-05-01T16:10:03.762Z,95939.41
2023-05-01T16:12:32.000Z,95932.66
2023-05-01T16:15:02.196Z,95928.75
2023-05-01T16:17:32.908Z,95928.81
2023-05-01T16:20:01.528Z,95934.22
2023-05-01T16:22:33.224Z,95941.34
2023-05-01T16:25:01.184Z,95940.16
2023-05-01T16:27:28.672Z,95945.28
2023-05-01T16:29:56.210Z,95941.56
2023-05-01T16:32:24.732Z,95955.13
2023-05-01T16:34:52.295Z,95948.56
2023-05-01T16:37:22.544Z,95954.13
2023-05-01T16:39:51.700Z,95950.59
2023-05-01T16:42:19.197Z,95945.66
2023-05-01T16:44:46.759Z,95942.25
2023-05-01T16:47:14.207Z,95939.38
2023-05-01T16:49:42.695Z,95937.22
2023-05-01T16:52:14.003Z,95939.75
2023-05-01T16:54:41.524Z,95936.63
2023-05-01T16:57:10.711Z,95937.78
2023-05-01T16:59:38.578Z,95939.88
2023-05-01T17:02:06.741Z,95942.72
2023-05-01T17:04:34.306Z,95955.66
2023-05-01T17:07:01.847Z,95960.69
2023-05-01T17:09:29.391Z,95951.75
2023-05-01T17:11:57.474Z,95960.72
2023-05-01T17:14:28.561Z,95957.09
2023-05-01T17:16:56.196Z,95960.41
2023-05-01T17:19:23.851Z,95954.16
2023-05-01T17:21:51.367Z,95963.91
2023-05-01T17:24:18.979Z,95962.06
2023-05-01T17:26:46.666Z,95962.69
2023-05-01T17:29:14.107Z,95961.56
2023-05-01T17:31:42.962Z,95968.41
2023-05-01T17:34:10.429Z,95960.97
2023-05-01T17:36:37.880Z,95964.94
2023-05-01T17:39:05.315Z,95971.16
2023-05-01T17:41:32.855Z,95968.41
2023-05-01T17:44:00.402Z,95970.53
2023-05-01T17:46:27.988Z,95970.69
2023-05-01T17:48:57.217Z,95971.22
2023-05-01T17:51:24.732Z,95969.31
2023-05-01T17:53:52.837Z,95977.53
2023-05-01T17:56:21.313Z,95961.13
2023-05-01T17:58:48.749Z,95968.38
2023-05-01T18:01:16.247Z,95972.47
2023-05-01T18:03:43.877Z,95975.16
2023-05-01T18:06:13.268Z,95968.97
2023-05-01T18:08:41.409Z,95982.78
2023-05-01T18:11:09.433Z,95985.34
2023-05-01T18:13:39.532Z,95987.28
2023-05-01T18:16:07.071Z,95985.41
2023-05-01T18:18:34.570Z,95989.22
2023-05-01T18:21:02.044Z,95987.56
2023-05-01T18:23:30.893Z,96002.22
2023-05-01T18:25:58.513Z,95995.97
2023-05-01T18:28:26.888Z,95995.72
2023-05-01T18:30:54.394Z,95993.81
2023-05-01T18:33:22.536Z,95998.59
2023-05-01T18:35:50.103Z,96001.75
2023-05-01T18:38:17.552Z,96007.03
2023-05-01T18:40:47.558Z,96003.38
2023-05-01T18:43:15.582Z,96004.28
2023-05-01T18:45:43.031Z,96006.34
2023-05-01T18:48:11.925Z,96015.59
2023-05-01T18:50:39.436Z,96023.06
2023-05-01T18:53:06.919Z,96020.72
2023-05-01T18:55:35.195Z,96026.75
2023-05-01T18:58:04.137Z,96037.28
2023-05-01T19:00:31.714Z,96031.53
2023-05-01T19:02:59.210Z,96041.88
2023-05-01T19:05:26.831Z,96045.94
2023-05-01T19:07:58.981Z,96056.81
2023-05-01T19:10:26.420Z,96045.25
2023-05-01T19:12:53.895Z,96052.53
2023-05-01T19:15:22.707Z,96061.25
2023-05-01T19:17:50.991Z,96069.72
2023-05-01T19:20:18.537Z,96068.00
2023-05-01T19:22:46.070Z,96067.66
2023-05-01T19:25:13.533Z,96065.13
2023-05-01T19:27:42.621Z,96072.19
2023-05-01T19:30:10.525Z,96077.91
2023-05-01T19:32:39.366Z,96083.13
2023-05-01T19:35:07.356Z,96078.38
2023-05-01T19:37:34.813Z,96077.38
2023-05-01T19:40:02.525Z,96079.59
2023-05-01T19:42:31.041Z,96086.00
2023-05-01T19:44:58.505Z,96082.69
2023-05-01T19:47:26.045Z,96086.75
2023-05-01T19:49:54.924Z,96085.91
2023-05-01T19:52:22.380Z,96083.25
2023-05-01T19:54:49.835Z,96091.59
2023-05-01T19:57:17.801Z,96096.03
2023-05-01T19:59:45.298Z,96106.97
2023-05-01T20:02:12.816Z,96105.16
2023-05-01T20:04:40.310Z,96105.28
2023-05-01T20:07:09.183Z,96114.72
2023-05-01T20:09:36.665Z,96108.22
2023-05-01T20:12:04.440Z,96112.16
2023-05-01T20:14:34.015Z,96111.19
2023-05-01T20:17:01.970Z,96111.09
2023-05-01T20:19:29.513Z,96108.06
2023-05-01T20:21:56.990Z,96110.94
2023-05-01T20:24:25.860Z,96106.78
2023-05-01T20:26:53.881Z,96111.56
2023-05-01T20:29:21.466Z,96115.28
2023-05-01T20:31:50.339Z,96113.00
2023-05-01T20:34:17.813Z,96118.66
2023-05-01T20:36:45.275Z,96117.94
2023-05-01T20:39:12.774Z,96119.06
2023-05-01T20:41:41.628Z,96116.25
2023-05-01T20:44:09.385Z,96124.34
2023-05-01T20:46:37.045Z,96120.78
2023-05-01T20:49:05.425Z,96125.59
2023-05-01T20:51:33.008Z,96131.38
2023-05-01T20:54:00.450Z,96128.56
2023-05-01T20:56:27.931Z,96126.72
2023-05-01T20:58:56.755Z,96121.94
2023-05-01T21:01:24.245Z,96121.69
2023-05-01T21:03:51.988Z,96115.31
2023-05-01T21:06:19.656Z,96128.28
2023-05-01T21:08:48.400Z,96122.59
2023-05-01T21:11:15.890Z,96118.28
2023-05-01T21:13:43.385Z,96124.94
2023-05-01T21:16:15.545Z,96128.44
2023-05-01T21:18:43.348Z,96125.38
2023-05-01T21:21:11.127Z,96130.69
2023-05-01T21:23:46.841Z,96139.22
2023-05-01T21:26:15.477Z,96146.19
2023-05-01T21:28:43.463Z,96149.03
2023-05-01T21:31:13.627Z,96142.16
2023-05-01T21:33:45.400Z,96143.38
2023-05-01T21:36:14.749Z,96145.00
2023-05-01T21:38:42.252Z,96143.38
2023-05-01T21:41:10.615Z,96154.34
2023-05-01T21:43:38.697Z,96163.34
2023-05-01T21:46:06.428Z,96150.31
2023-05-01T21:48:36.204Z,96158.63
2023-05-01T21:51:04.359Z,96158.63
2023-05-01T21:53:33.317Z,96158.25
2023-05-01T21:56:01.125Z,96158.91
2023-05-01T21:58:29.009Z,96151.28
2023-05-01T22:00:56.539Z,96154.75
2023-05-01T22:03:24.797Z,96163.94
2023-05-01T22:05:53.964Z,96164.94
2023-05-01T22:08:21.713Z,96164.75
2023-05-01T22:10:49.283Z,96166.69
2023-05-01T22:13:16.758Z,96165.00
2023-05-01T22:15:44.356Z,96170.38
2023-05-01T22:18:13.621Z,96163.25
2023-05-01T22:20:41.102Z,96171.03
2023-05-01T22:23:09.899Z,96174.41
2023-05-01T22:25:37.370Z,96176.69
2023-05-01T22:28:05.965Z,96171.50
2023-05-01T22:30:34.723Z,96177.31
2023-05-01T22:33:02.233Z,96175.34
2023-05-01T22:35:30.203Z,96174.81
2023-05-01T22:37:57.915Z,96174.91
2023-05-01T22:40:26.713Z,96176.69
2023-05-01T22:42:54.211Z,96173.84
2023-05-01T22:45:21.757Z,96181.53
2023-05-01T22:47:49.258Z,96178.28
2023-05-01T22:50:16.936Z,96178.94
2023-05-01T22:52:46.498Z,96170.63
2023-05-01T22:55:14.286Z,96169.56
2023-05-01T22:57:43.071Z,96183.06
2023-05-01T23:00:13.775Z,96180.75
2023-05-01T23:02:41.431Z,96180.84
2023-05-01T23:05:10.306Z,96182.38
2023-05-01T23:07:38.161Z,96182.72
2023-05-01T23:10:06.488Z,96184.19
2023-05-01T23:12:34.009Z,96183.50
2023-05-01T23:15:02.796Z,96192.16
2023-05-01T23:17:34.690Z,96187.53
2023-05-01T23:20:02.494Z,96186.22
2023-05-01T23:22:30.999Z,96186.53
2023-05-01T23:24:58.480Z,96189.03
2023-05-01T23:27:26.082Z,96195.19
2023-05-01T23:29:56.506Z,96189.88
2023-05-01T23:32:27.825Z,96186.56
2023-05-01T23:34:56.614Z,96188.53
2023-05-01T23:37:24.064Z,96191.03
2023-05-01T23:39:53.460Z,96190.31
2023-05-01T23:42:22.069Z,96196.16
2023-05-01T23:44:49.714Z,96185.22
2023-05-01T23:47:17.301Z,96189.19
2023-05-01T23:49:46.178Z,96186.22
2023-05-01T23:52:13.692Z,96176.25
2023-05-01T23:54:41.133Z,96185.56
2023-05-01T23:57:08.636Z,96184.22
2023-05-01T23:59:36.781Z,96187.41
